Time;durP1;ratioP1;P1;durP2;ratioP2;P2;SDS_P1;SDS_P2;PMS_P1;PMS_P2;Temp;Humidity;BMP_temperature;BMP_pressure;BME280_temperature;BME280_humidity;BME280_pressure;Samples;Min_cycle;Max_cycle;Signal;HPM_P1;HPM_P2
2021/07/26 00:03:15;;;;;;;40.90;6.35;;;;;;;18.71;68.47;99304.09;10364738;28;20517;-59
2021/07/26 00:08:17;;;;;;;137.30;9.93;;;;;;;18.81;68.46;99299.50;10368387;28;20132;-60
2021/07/26 00:13:18;;;;;;;165.40;8.85;;;;;;;18.75;68.19;99289.53;10383035;28;20057;-60
2021/07/26 00:18:20;;;;;;;362.48;15.15;;;;;;;18.78;68.08;99291.03;10364589;28;20046;-60
2021/07/26 00:23:22;;;;;;;128.63;11.73;;;;;;;18.75;68.25;99310.72;10364451;28;20076;-60
2021/07/26 00:28:24;;;;;;;390.83;17.35;;;;;;;18.60;68.34;99289.31;10363950;28;20054;-60
2021/07/26 00:34:07;;;;;;;143.43;12.52;;;;;;;18.59;68.49;99277.06;10364124;28;20060;-60
2021/07/26 00:39:09;;;;;;;106.90;10.25;;;;;;;18.71;68.38;99287.38;10377766;28;20092;-60
2021/07/26 00:44:11;;;;;;;146.45;12.30;;;;;;;18.79;68.45;99285.56;10363666;28;20149;-60
2021/07/26 00:49:15;;;;;;;382.98;21.65;;;;;;;18.73;68.09;99280.91;10362963;28;20046;-60
2021/07/26 00:54:19;;;;;;;88.78;6.40;;;;;;;18.67;67.49;99274.44;10363198;28;20050;-60
2021/07/26 00:59:22;;;;;;;267.17;15.65;;;;;;;18.66;67.91;99279.91;10378124;28;20132;-60
2021/07/26 01:04:25;;;;;;;281.15;19.33;;;;;;;18.64;68.13;99287.19;10373081;28;20076;-60
2021/07/26 01:09:27;;;;;;;140.25;12.85;;;;;;;18.65;68.20;99284.38;10362565;28;20064;-60
2021/07/26 01:14:30;;;;;;;123.28;11.52;;;;;;;18.77;67.81;99276.97;10377333;28;20209;-60
2021/07/26 01:19:32;;;;;;;58.83;12.30;;;;;;;18.85;67.55;99278.84;10361642;28;20545;-60
2021/07/26 01:24:33;;;;;;;34.95;9.23;;;;;;;18.83;67.48;99276.31;10361966;28;20074;-60
2021/07/26 01:29:35;;;;;;;19.77;7.95;;;;;;;18.86;67.08;99280.47;10359984;28;20081;-60
2021/07/26 01:34:37;;;;;;;15.15;8.90;;;;;;;18.88;67.31;99289.09;10341615;28;20058;-60
2021/07/26 01:39:38;;;;;;;25.38;10.30;;;;;;;18.84;67.20;99288.59;10330974;28;20132;-60
2021/07/26 01:44:40;;;;;;;23.45;10.15;;;;;;;18.80;67.11;99287.25;10361663;28;20574;-60
2021/07/26 01:49:53;;;;;;;33.58;11.38;;;;;;;18.75;67.30;99301.97;10359981;28;20046;-60
2021/07/26 01:54:55;;;;;;;35.35;8.68;;;;;;;18.70;67.27;99306.91;10359303;28;20566;-60
2021/07/26 01:59:57;;;;;;;20.30;7.30;;;;;;;18.70;67.21;99304.25;10360722;28;20137;-60
2021/07/26 02:04:59;;;;;;;16.77;6.88;;;;;;;18.71;67.50;99308.56;10367169;28;20145;-60
2021/07/26 02:10:00;;;;;;;56.67;11.48;;;;;;;18.74;67.13;99303.78;10368773;28;20586;-59
2021/07/26 02:15:03;;;;;;;45.05;10.27;;;;;;;18.78;67.17;99304.28;10367946;28;20081;-60
2021/07/26 02:20:06;;;;;;;40.33;7.90;;;;;;;18.76;67.21;99301.81;10376625;28;20045;-60
2021/07/26 02:25:08;;;;;;;33.80;7.85;;;;;;;18.68;67.06;99301.78;10393391;28;20050;-59
2021/07/26 02:30:10;;;;;;;18.08;7.10;;;;;;;18.68;67.70;99315.00;10368640;28;20078;-60
2021/07/26 02:35:12;;;;;;;108.68;9.75;;;;;;;18.74;67.49;99319.69;10367623;28;20133;-60
2021/07/26 02:40:14;;;;;;;263.50;15.45;;;;;;;18.63;67.53;99317.28;10383160;28;20132;-60
2021/07/26 02:45:16;;;;;;;28.80;6.45;;;;;;;18.49;67.91;99317.88;10367221;28;20133;-59
2021/07/26 02:50:19;;;;;;;45.55;10.60;;;;;;;18.57;67.82;99320.56;10367510;28;20112;-59
2021/07/26 02:55:21;;;;;;;26.73;5.85;;;;;;;18.56;67.73;99326.88;10366955;28;20142;-59
2021/07/26 03:00:22;;;;;;;172.93;11.43;;;;;;;18.25;67.82;99333.59;10370614;28;20129;-59
2021/07/26 03:05:27;;;;;;;71.97;6.45;;;;;;;18.07;68.11;99330.13;10368744;28;20042;-59
2021/07/26 03:10:28;;;;;;;36.20;5.55;;;;;;;18.10;68.11;99335.94;10370337;28;20081;-60
2021/07/26 03:15:30;;;;;;;147.00;10.15;;;;;;;18.01;68.38;99336.03;10365800;28;20046;-60
2021/07/26 03:20:32;;;;;;;233.25;20.80;;;;;;;18.12;68.09;99344.56;10368318;28;20049;-59
2021/07/26 03:25:38;;;;;;;311.70;22.35;;;;;;;18.01;68.26;99349.25;10367002;28;20049;-60
2021/07/26 03:30:40;;;;;;;111.65;12.35;;;;;;;17.85;68.37;99342.84;10367630;28;20095;-59
2021/07/26 03:35:42;;;;;;;170.40;11.75;;;;;;;17.70;68.54;99346.16;10367366;28;20124;-60
2021/07/26 03:40:43;;;;;;;72.13;13.32;;;;;;;17.82;68.43;99345.81;10367158;28;20128;-60
2021/07/26 03:45:45;;;;;;;84.10;11.43;;;;;;;18.04;67.93;99354.22;10368379;28;20177;-60
2021/07/26 03:50:47;;;;;;;309.08;17.10;;;;;;;17.88;67.96;99349.66;10368671;28;20160;-60
2021/07/26 03:55:48;;;;;;;250.80;12.70;;;;;;;17.64;68.48;99360.00;10367428;28;20053;-60
2021/07/26 04:00:50;;;;;;;196.57;14.77;;;;;;;17.57;68.70;99365.03;10367888;28;20129;-60
2021/07/26 04:06:11;;;;;;;551.05;24.52;;;;;;;17.47;68.66;99359.00;10365767;28;20077;-60
2021/07/26 04:11:21;;;;;;;225.77;15.13;;;;;;;17.43;68.93;99370.00;10343590;28;20088;-60
2021/07/26 04:16:23;;;;;;;220.18;12.65;;;;;;;17.31;69.25;99368.50;10366737;28;20054;-60
2021/07/26 04:21:32;;;;;;;233.68;20.70;;;;;;;17.43;69.05;99370.00;10366408;28;20084;-60
2021/07/26 04:26:34;;;;;;;186.67;16.40;;;;;;;17.53;68.96;99362.84;10366758;28;20052;-60
2021/07/26 04:31:35;;;;;;;343.13;18.75;;;;;;;17.34;68.61;99374.41;10366216;28;20054;-60
2021/07/26 04:36:37;;;;;;;213.43;20.00;;;;;;;17.38;68.79;99373.13;10366060;28;20141;-60
2021/07/26 04:41:39;;;;;;;259.13;17.40;;;;;;;17.29;68.75;99379.25;10365750;28;20070;-60
2021/07/26 04:46:40;;;;;;;286.55;16.17;;;;;;;17.37;68.42;99389.94;10365311;28;20100;-60
2021/07/26 04:51:42;;;;;;;405.50;15.18;;;;;;;17.34;68.46;99398.19;10365471;28;20104;-59
2021/07/26 04:56:44;;;;;;;257.42;10.70;;;;;;;17.21;68.32;99399.44;10380164;28;20129;-59
2021/07/26 05:01:45;;;;;;;159.70;12.65;;;;;;;17.13;68.82;99404.63;10364960;28;20128;-60
2021/07/26 05:06:47;;;;;;;105.00;7.82;;;;;;;17.14;68.46;99404.47;10364283;28;20124;-60
2021/07/26 05:11:49;;;;;;;131.73;13.13;;;;;;;17.29;67.97;99407.47;10365348;28;20125;-59
2021/07/26 05:16:50;;;;;;;120.13;8.35;;;;;;;17.38;68.20;99404.84;10364162;28;20133;-60
2021/07/26 05:21:52;;;;;;;315.85;15.90;;;;;;;17.47;67.58;99403.09;10363750;28;20132;-60
2021/07/26 05:27:00;;;;;;;166.73;13.05;;;;;;;17.41;67.72;99396.59;10364783;28;20124;-59
2021/07/26 05:32:02;;;;;;;249.35;15.23;;;;;;;17.38;67.92;99396.06;10356049;28;20057;-59
2021/07/26 05:37:04;;;;;;;10.15;6.50;;;;;;;17.68;67.60;99399.22;10363898;28;20124;-59
2021/07/26 05:42:10;;;;;;;49.13;5.68;;;;;;;17.90;66.56;99413.81;10363388;28;20064;-59
2021/07/26 05:47:12;;;;;;;135.07;8.60;;;;;;;17.74;66.77;99408.38;10362945;28;20042;-59
2021/07/26 05:52:14;;;;;;;52.25;8.30;;;;;;;17.74;66.97;99409.22;10362743;28;20740;-59
2021/07/26 05:57:17;;;;;;;128.60;13.07;;;;;;;17.64;67.03;99418.19;10358478;28;20057;-59
2021/07/26 06:02:19;;;;;;;97.05;10.82;;;;;;;17.53;67.04;99410.44;10343941;28;20049;-60
2021/07/26 06:07:21;;;;;;;92.90;12.15;;;;;;;17.81;67.18;99404.16;10355286;28;20054;-59
2021/07/26 06:12:23;;;;;;;203.75;13.60;;;;;;;17.83;66.24;99405.63;10334335;28;20165;-59
2021/07/26 06:17:25;;;;;;;76.03;9.23;;;;;;;17.84;66.07;99409.13;10352263;28;20054;-60
2021/07/26 06:22:27;;;;;;;31.15;7.90;;;;;;;18.25;65.40;99413.00;10351271;28;20050;-59
2021/07/26 06:27:29;;;;;;;11.27;5.70;;;;;;;18.74;63.73;99409.75;10356678;28;20104;-59
2021/07/26 06:32:32;;;;;;;13.13;6.00;;;;;;;18.65;63.44;99413.31;10359364;28;20184;-60
2021/07/26 06:37:33;;;;;;;9.88;6.70;;;;;;;19.19;62.42;99398.94;10364710;28;20101;-59
2021/07/26 06:42:35;;;;;;;14.45;6.32;;;;;;;20.39;59.83;99393.06;10363522;28;20049;-60
2021/07/26 06:47:37;;;;;;;12.88;6.45;;;;;;;20.62;58.50;99399.38;10366109;28;20060;-60
2021/07/26 06:52:39;;;;;;;8.45;5.88;;;;;;;20.14;59.79;99400.19;10368865;28;20398;-61
2021/07/26 06:57:41;;;;;;;8.18;5.63;;;;;;;19.80;60.06;99415.38;10367024;28;20125;-60
2021/07/26 07:02:42;;;;;;;13.35;7.60;;;;;;;20.22;59.22;99409.97;10364247;28;20042;-61
2021/07/26 07:07:44;;;;;;;10.77;5.97;;;;;;;20.40;58.87;99408.00;10367168;28;20061;-60
2021/07/26 07:12:46;;;;;;;14.38;9.43;;;;;;;20.55;58.64;99403.69;10367317;28;20548;-60
2021/07/26 07:17:47;;;;;;;14.35;8.75;;;;;;;20.69;58.55;99405.69;10367101;28;20129;-60
2021/07/26 07:22:49;;;;;;;10.88;7.65;;;;;;;20.94;58.03;99414.44;10366788;28;20392;-61
2021/07/26 07:27:51;;;;;;;10.82;7.80;;;;;;;21.02;57.72;99401.97;10367143;28;20129;-61
2021/07/26 07:32:52;;;;;;;11.55;9.23;;;;;;;20.87;58.05;99403.66;10366102;28;20093;-60
2021/07/26 07:37:54;;;;;;;11.23;8.05;;;;;;;20.88;58.21;99412.47;10363424;28;20125;-60
2021/07/26 07:42:56;;;;;;;8.98;6.70;;;;;;;21.29;57.52;99410.50;10365444;28;20136;-60
2021/07/26 07:47:58;;;;;;;10.48;5.88;;;;;;;22.32;55.28;99402.94;10365979;28;20132;-60
2021/07/26 07:52:59;;;;;;;6.97;5.20;;;;;;;24.00;52.06;99390.53;10363880;28;20087;-60
2021/07/26 07:58:03;;;;;;;6.90;5.47;;;;;;;25.29;48.60;99398.94;10366661;28;20569;-61
2021/07/26 08:03:04;;;;;;;7.57;4.80;;;;;;;25.70;47.54;99400.59;10367133;28;20126;-61
2021/07/26 08:08:07;;;;;;;5.82;3.70;;;;;;;25.76;47.16;99399.78;10381662;28;20050;-61
2021/07/26 08:13:09;;;;;;;10.82;4.70;;;;;;;26.38;46.12;99399.53;10367497;28;20137;-61
2021/07/26 08:18:11;;;;;;;6.13;4.03;;;;;;;26.73;45.08;99402.00;10365887;28;20045;-61
2021/07/26 08:23:13;;;;;;;8.65;3.80;;;;;;;27.18;44.25;99393.06;10349441;28;20049;-61
2021/07/26 08:28:15;;;;;;;8.07;4.00;;;;;;;27.38;43.47;99386.59;10366970;28;20137;-61
2021/07/26 08:33:17;;;;;;;8.50;3.70;;;;;;;27.85;43.43;99381.84;10364573;28;20478;-61
2021/07/26 08:38:19;;;;;;;8.05;4.38;;;;;;;28.14;42.60;99381.22;10360899;28;20494;-61
2021/07/26 08:43:23;;;;;;;6.47;2.72;;;;;;;28.62;41.47;99384.19;10365125;28;20137;-61
2021/07/26 08:48:27;;;;;;;5.22;2.80;;;;;;;28.55;41.74;99378.03;10358163;28;20046;-61
2021/07/26 08:53:31;;;;;;;4.88;2.33;;;;;;;28.57;40.08;99379.47;10364210;28;20045;-61
2021/07/26 08:58:32;;;;;;;3.83;2.55;;;;;;;28.58;40.30;99378.44;10363546;28;20133;-61
2021/07/26 09:03:34;;;;;;;5.35;2.50;;;;;;;28.86;39.76;99370.75;10364848;28;20132;-61
2021/07/26 09:08:38;;;;;;;4.47;2.35;;;;;;;29.05;38.34;99367.00;10362214;28;20057;-61
2021/07/26 09:13:44;;;;;;;3.88;2.13;;;;;;;28.99;38.32;99365.22;10346422;28;20570;-61
2021/07/26 09:19:07;;;;;;;4.65;2.20;;;;;;;28.80;36.43;99358.16;10382438;28;20105;-61
2021/07/26 09:24:09;;;;;;;4.80;2.15;;;;;;;28.75;37.69;99368.75;10327738;28;20092;-61
2021/07/26 09:29:27;;;;;;;5.40;2.50;;;;;;;27.82;39.06;99356.22;10363394;28;20103;-61
2021/07/26 09:34:29;;;;;;;8.43;2.58;;;;;;;26.91;40.96;99372.66;10362153;28;20081;-61
2021/07/26 09:39:31;;;;;;;5.13;1.95;;;;;;;27.43;39.68;99365.28;10321202;28;20133;-61
2021/07/26 09:44:33;;;;;;;3.70;2.00;;;;;;;27.32;39.24;99365.94;10362308;28;20136;-61
2021/07/26 09:49:38;;;;;;;3.88;2.00;;;;;;;27.02;40.63;99364.78;10364153;28;20490;-61
2021/07/26 09:54:48;;;;;;;3.88;2.20;;;;;;;26.85;40.17;99373.50;10363426;28;20500;-61
2021/07/26 09:59:51;;;;;;;3.97;2.10;;;;;;;26.73;40.58;99364.44;10363688;28;20726;-61
2021/07/26 10:04:54;;;;;;;4.55;2.13;;;;;;;26.83;39.87;99372.91;10364041;28;20144;-61
2021/07/26 10:09:57;;;;;;;4.85;2.33;;;;;;;27.96;38.60;99379.31;10360660;28;20038;-61
2021/07/26 10:14:59;;;;;;;4.75;2.25;;;;;;;28.51;38.08;99387.59;10363258;28;20042;-61
2021/07/26 10:20:01;;;;;;;3.35;2.20;;;;;;;28.04;38.28;99376.34;10378380;28;20129;-61
2021/07/26 10:25:11;;;;;;;5.82;3.10;;;;;;;28.22;37.65;99380.97;10363470;28;20054;-61
2021/07/26 10:30:36;;;;;;;4.55;3.10;;;;;;;28.37;37.91;99376.13;10363147;28;20827;-61
2021/07/26 10:35:40;;;;;;;3.58;2.40;;;;;;;27.30;38.27;99378.75;10362441;28;20085;-61
2021/07/26 10:40:43;;;;;;;3.95;2.40;;;;;;;26.98;39.90;99387.72;10362630;28;20077;-61
2021/07/26 10:45:54;;;;;;;5.55;2.58;;;;;;;27.13;39.60;99384.78;10362497;28;20620;-61
2021/07/26 10:50:58;;;;;;;6.65;2.88;;;;;;;27.27;40.00;99387.25;10362199;28;20041;-61
2021/07/26 10:56:03;;;;;;;5.53;2.40;;;;;;;26.82;40.30;99390.84;10362104;28;20138;-61
2021/07/26 11:01:20;;;;;;;5.40;2.83;;;;;;;26.33;41.49;99395.78;10360656;28;20150;-61
2021/07/26 11:06:33;;;;;;;3.40;2.40;;;;;;;26.56;41.50;99380.16;10362281;28;20046;-61
2021/07/26 11:11:41;;;;;;;3.70;2.30;;;;;;;27.24;40.21;99365.38;10377418;28;20493;-61
2021/07/26 11:16:53;;;;;;;5.30;2.40;;;;;;;27.35;39.42;99370.91;10362272;28;20157;-61
2021/07/26 11:21:55;;;;;;;4.70;2.30;;;;;;;27.77;39.55;99366.78;10364772;28;20484;-61
2021/07/26 11:26:57;;;;;;;6.07;2.75;;;;;;;27.67;39.74;99360.22;10369363;28;20081;-61
2021/07/26 11:31:58;;;;;;;5.47;2.50;;;;;;;27.61;39.73;99355.69;10369291;28;20522;-61
2021/07/26 11:37:02;;;;;;;3.50;2.25;;;;;;;27.81;39.01;99348.41;10368303;28;20484;-61
2021/07/26 11:42:03;;;;;;;4.68;2.50;;;;;;;27.83;39.62;99340.94;10368333;28;20069;-61
2021/07/26 11:47:05;;;;;;;4.82;2.42;;;;;;;27.55;39.13;99343.94;10367967;28;20562;-61
2021/07/26 11:52:27;;;;;;;3.90;2.50;;;;;;;27.96;38.67;99330.91;10368154;28;20422;-61
2021/07/26 11:57:29;;;;;;;6.07;2.60;;;;;;;27.52;39.57;99339.03;10367960;28;20050;-61
2021/07/26 12:02:36;;;;;;;7.07;2.50;;;;;;;27.64;39.23;99337.31;10367512;28;20455;-61
2021/07/26 12:07:46;;;;;;;4.72;2.30;;;;;;;27.77;38.09;99334.53;10367952;28;20056;-61
2021/07/26 12:12:49;;;;;;;5.50;2.40;;;;;;;28.03;38.09;99322.81;10366570;28;20088;-61
2021/07/26 12:18:08;;;;;;;3.80;2.30;;;;;;;28.01;37.99;99332.97;10367101;28;20088;-61
2021/07/26 12:23:24;;;;;;;4.93;2.40;;;;;;;28.31;36.20;99328.59;10367173;28;20375;-61
2021/07/26 12:28:45;;;;;;;3.45;2.20;;;;;;;27.87;37.32;99337.56;10366959;28;20050;-61
2021/07/26 12:33:47;;;;;;;3.92;2.50;;;;;;;27.93;38.05;99339.41;10365781;28;20050;-61
2021/07/26 12:39:07;;;;;;;3.80;2.33;;;;;;;28.18;36.78;99339.41;10366892;28;20539;-61
2021/07/26 12:44:19;;;;;;;3.75;2.42;;;;;;;28.17;36.96;99341.31;10366067;28;20465;-61
2021/07/26 12:49:22;;;;;;;3.40;2.30;;;;;;;28.38;36.07;99334.72;10365463;28;20104;-61
2021/07/26 12:54:41;;;;;;;5.00;2.50;;;;;;;28.65;35.24;99340.69;10365922;28;20049;-61
2021/07/26 12:59:42;;;;;;;3.70;2.17;;;;;;;28.34;35.69;99333.53;10364946;28;20121;-61
2021/07/26 13:04:44;;;;;;;5.53;2.50;;;;;;;28.27;36.12;99336.25;10365315;28;20542;-61
2021/07/26 13:09:46;;;;;;;4.95;2.72;;;;;;;28.05;36.24;99342.22;10365648;28;20046;-61
2021/07/26 13:14:48;;;;;;;3.60;2.30;;;;;;;27.59;36.22;99334.41;10364303;28;20144;-61
2021/07/26 13:19:49;;;;;;;4.75;2.50;;;;;;;28.01;35.95;99319.50;10365277;28;20123;-61
2021/07/26 13:24:51;;;;;;;5.35;2.42;;;;;;;27.82;36.22;99317.78;10364926;28;20129;-61
2021/07/26 13:29:57;;;;;;;4.88;2.50;;;;;;;27.72;35.54;99320.09;10364512;28;20065;-61
2021/07/26 13:34:59;;;;;;;3.33;2.20;;;;;;;27.85;36.11;99318.16;10364723;28;20133;-61
2021/07/26 13:40:01;;;;;;;3.67;2.50;;;;;;;27.80;36.62;99317.16;10364207;28;20488;-61
2021/07/26 13:45:03;;;;;;;3.47;2.15;;;;;;;27.98;35.76;99315.38;10378514;28;20054;-61
2021/07/26 13:50:06;;;;;;;3.55;2.25;;;;;;;27.99;34.92;99308.16;10363740;28;20046;-61
2021/07/26 13:55:09;;;;;;;3.47;2.28;;;;;;;28.02;34.55;99300.47;10364075;28;20068;-59
2021/07/26 14:00:13;;;;;;;5.05;2.20;;;;;;;28.31;35.16;99293.63;10363299;28;20585;-58
2021/07/26 14:05:14;;;;;;;4.22;2.40;;;;;;;28.61;33.72;99283.81;10379281;28;20068;-58
2021/07/26 14:10:16;;;;;;;4.65;2.40;;;;;;;28.78;33.52;99284.88;10363661;28;20133;-59
2021/07/26 14:15:18;;;;;;;4.35;2.40;;;;;;;28.52;34.33;99298.63;10363228;28;20160;-59
2021/07/26 14:20:20;;;;;;;4.55;2.10;;;;;;;28.11;33.96;99291.09;10363478;28;20081;-59
2021/07/26 14:25:22;;;;;;;4.75;2.55;;;;;;;28.00;34.66;99294.50;10363543;28;20487;-59
2021/07/26 14:30:23;;;;;;;3.95;2.40;;;;;;;28.11;34.51;99283.03;10362337;28;20133;-60
2021/07/26 14:35:25;;;;;;;3.90;2.50;;;;;;;28.15;34.63;99286.09;10378469;28;20506;-59
2021/07/26 14:40:27;;;;;;;4.13;2.40;;;;;;;28.42;33.67;99289.41;10361889;28;20049;-60
2021/07/26 14:45:32;;;;;;;6.22;2.55;;;;;;;28.62;32.54;99284.66;10362501;28;20455;-60
2021/07/26 14:50:34;;;;;;;4.68;2.40;;;;;;;28.53;33.45;99284.09;10362873;28;20503;-60
2021/07/26 14:55:38;;;;;;;5.35;2.45;;;;;;;28.14;33.61;99285.28;10363755;28;20410;-60
2021/07/26 15:00:40;;;;;;;3.55;2.35;;;;;;;27.64;34.60;99298.84;10369711;28;20086;-60
2021/07/26 15:05:42;;;;;;;3.28;2.20;;;;;;;26.98;35.75;99306.38;10370676;28;20053;-60
2021/07/26 15:10:44;;;;;;;18.35;2.60;;;;;;;26.71;36.32;99300.25;10370082;28;20104;-59
2021/07/26 15:15:50;;;;;;;4.45;2.30;;;;;;;26.40;36.48;99308.13;10368506;28;20057;-60
2021/07/26 15:20:51;;;;;;;6.65;2.60;;;;;;;26.05;39.23;99336.19;10369926;28;20478;-60
2021/07/26 15:25:54;;;;;;;5.20;2.55;;;;;;;25.46;41.93;99341.38;10369379;28;20073;-60
2021/07/26 15:30:56;;;;;;;13.98;3.20;;;;;;;24.94;45.41;99341.94;10367761;28;20056;-60
2021/07/26 15:35:58;;;;;;;6.50;2.67;;;;;;;24.67;48.01;99343.63;10369580;28;20133;-60
2021/07/26 15:40:59;;;;;;;7.95;3.10;;;;;;;24.65;48.89;99334.97;10368341;28;20563;-60
2021/07/26 15:46:01;;;;;;;6.72;3.08;;;;;;;24.83;49.71;99338.00;10368274;28;20042;-60
2021/07/26 15:51:03;;;;;;;5.10;2.67;;;;;;;25.18;49.24;99325.41;10368333;28;20080;-60
2021/07/26 15:56:05;;;;;;;4.03;2.38;;;;;;;25.63;47.62;99319.38;10367050;28;20694;-60
2021/07/26 16:01:08;;;;;;;4.97;2.92;;;;;;;25.78;48.37;99320.03;10367826;28;20133;-60
2021/07/26 16:06:10;;;;;;;5.72;2.40;;;;;;;25.83;46.92;99333.63;10366926;28;20128;-60
2021/07/26 16:11:11;;;;;;;8.13;2.97;;;;;;;25.64;48.31;99321.06;10366525;28;20054;-60
2021/07/26 16:16:13;;;;;;;8.27;2.80;;;;;;;25.97;48.42;99318.47;10382815;28;20421;-60
2021/07/26 16:21:15;;;;;;;3.80;2.58;;;;;;;25.74;47.99;99315.28;10367364;28;20247;-60
2021/07/26 16:26:18;;;;;;;4.65;2.75;;;;;;;25.46;47.71;99307.41;10366268;28;20059;-60
2021/07/26 16:31:20;;;;;;;5.10;2.55;;;;;;;25.37;46.25;99297.91;10367124;28;20137;-60
2021/07/26 16:36:22;;;;;;;4.72;2.60;;;;;;;25.68;46.51;99300.88;10367154;28;20072;-60
2021/07/26 16:41:25;;;;;;;4.35;2.65;;;;;;;25.92;44.00;99295.97;10381557;28;20132;-61
2021/07/26 16:46:26;;;;;;;3.92;2.47;;;;;;;26.08;43.53;99285.66;10366280;28;20089;-60
2021/07/26 16:51:28;;;;;;;3.35;2.40;;;;;;;25.95;42.82;99285.66;10366327;28;20609;-60
2021/07/26 16:56:30;;;;;;;4.78;2.58;;;;;;;25.80;42.66;99288.53;10365703;28;20153;-60
2021/07/26 17:01:32;;;;;;;3.28;2.25;;;;;;;25.66;42.08;99292.22;10365586;28;20132;-60
2021/07/26 17:06:33;;;;;;;5.35;2.55;;;;;;;25.27;42.81;99301.94;10365306;28;20052;-60
2021/07/26 17:11:38;;;;;;;3.85;2.45;;;;;;;25.48;42.58;99294.66;10365382;28;20088;-60
2021/07/26 17:16:40;;;;;;;4.10;2.53;;;;;;;25.45;42.57;99307.59;10365225;28;20050;-60
2021/07/26 17:21:42;;;;;;;3.72;2.25;;;;;;;25.50;41.43;99303.31;10363513;28;20092;-60
2021/07/26 17:26:44;;;;;;;4.30;2.25;;;;;;;25.36;41.10;99300.78;10380177;28;20168;-59
2021/07/26 17:31:46;;;;;;;3.60;2.20;;;;;;;25.34;40.91;99306.34;10364304;28;20617;-60
2021/07/26 17:36:47;;;;;;;4.80;2.20;;;;;;;25.42;41.25;99308.84;10364318;28;20112;-60
2021/07/26 17:41:49;;;;;;;4.10;2.55;;;;;;;25.49;41.52;99312.34;10379698;28;20611;-60
2021/07/26 17:46:51;;;;;;;3.33;2.10;;;;;;;25.36;40.81;99309.66;10364727;28;20057;-60
2021/07/26 17:51:54;;;;;;;4.95;2.55;;;;;;;25.03;41.09;99308.66;10362757;28;20046;-60
2021/07/26 17:56:56;;;;;;;4.72;2.10;;;;;;;24.70;40.93;99318.31;10364053;28;20128;-60
2021/07/26 18:02:00;;;;;;;3.22;2.10;;;;;;;24.79;41.22;99319.84;10363946;28;20046;-60
2021/07/26 18:07:10;;;;;;;3.45;2.10;;;;;;;24.84;41.19;99330.78;10363494;28;20442;-60
2021/07/26 18:12:12;;;;;;;4.30;2.53;;;;;;;24.83;41.55;99339.84;10362967;28;20080;-60
2021/07/26 18:17:14;;;;;;;3.63;2.33;;;;;;;24.82;41.57;99343.50;10363302;28;20085;-60
2021/07/26 18:22:15;;;;;;;3.67;2.20;;;;;;;24.67;41.82;99356.16;10377998;28;20054;-60
2021/07/26 18:27:17;;;;;;;5.18;2.40;;;;;;;24.53;41.77;99362.44;10363618;28;20601;-59
2021/07/26 18:32:19;;;;;;;4.32;2.13;;;;;;;24.39;43.01;99363.38;10367575;28;20561;-59
2021/07/26 18:37:21;;;;;;;4.18;1.90;;;;;;;24.26;42.49;99378.28;10369777;28;20402;-60
2021/07/26 18:42:23;;;;;;;3.63;2.10;;;;;;;24.05;43.05;99380.91;10370899;28;20128;-59
2021/07/26 18:47:25;;;;;;;4.50;2.20;;;;;;;23.91;42.57;99376.47;10371002;28;20057;-59
2021/07/26 18:52:26;;;;;;;3.90;2.08;;;;;;;23.78;43.16;99384.31;10370679;28;20129;-59
2021/07/26 18:57:29;;;;;;;4.28;2.30;;;;;;;23.62;45.03;99392.56;10370112;28;20062;-59
2021/07/26 19:02:31;;;;;;;5.00;2.40;;;;;;;23.20;47.16;99408.44;10370217;28;20153;-60
2021/07/26 19:07:39;;;;;;;4.30;2.25;;;;;;;22.83;47.63;99413.81;10370414;28;20046;-59
2021/07/26 19:12:42;;;;;;;4.75;2.20;;;;;;;22.58;47.78;99411.38;10370416;28;20128;-59
2021/07/26 19:17:44;;;;;;;4.70;2.20;;;;;;;22.39;47.00;99427.84;10369541;28;20054;-59
2021/07/26 19:22:46;;;;;;;3.55;2.03;;;;;;;22.32;46.17;99431.41;10369521;28;20084;-60
2021/07/26 19:27:49;;;;;;;3.53;2.00;;;;;;;22.19;46.55;99432.00;10369664;28;20474;-59
2021/07/26 19:32:54;;;;;;;4.65;2.20;;;;;;;22.25;46.17;99433.94;10366744;28;20390;-59
2021/07/26 19:37:56;;;;;;;5.30;2.22;;;;;;;22.27;46.16;99431.94;10363956;28;20490;-59
2021/07/26 19:42:57;;;;;;;4.20;2.13;;;;;;;22.23;47.00;99451.94;10366292;28;20089;-59
2021/07/26 19:48:00;;;;;;;4.72;2.40;;;;;;;22.14;47.73;99460.19;10380251;28;20061;-59
2021/07/26 19:53:02;;;;;;;5.00;2.10;;;;;;;21.92;48.64;99459.94;10366041;28;20057;-59
2021/07/26 19:58:04;;;;;;;3.13;2.03;;;;;;;21.80;48.71;99455.22;10367562;28;20482;-59
2021/07/26 20:03:06;;;;;;;4.35;2.10;;;;;;;21.82;48.81;99451.34;10365238;28;20049;-59
2021/07/26 20:08:08;;;;;;;5.53;2.22;;;;;;;21.73;47.81;99451.56;10366851;28;20111;-60
2021/07/26 20:13:10;;;;;;;4.10;1.92;;;;;;;21.73;48.06;99454.22;10366531;28;20490;-59
2021/07/26 20:18:13;;;;;;;3.67;2.30;;;;;;;21.75;48.37;99447.75;10382081;28;20050;-59
2021/07/26 20:23:14;;;;;;;3.85;2.10;;;;;;;21.77;47.58;99445.72;10365716;28;20081;-59
2021/07/26 20:28:16;;;;;;;4.15;2.03;;;;;;;21.83;47.16;99449.53;10365704;28;20064;-58
2021/07/26 20:33:19;;;;;;;4.63;2.25;;;;;;;21.84;47.17;99459.19;10367001;28;20128;-59
2021/07/26 20:38:21;;;;;;;4.75;2.10;;;;;;;21.90;46.79;99461.94;10365826;28;20081;-59
2021/07/26 20:43:23;;;;;;;4.40;2.30;;;;;;;21.82;46.73;99458.53;10365663;28;20137;-60
2021/07/26 20:48:24;;;;;;;3.30;2.05;;;;;;;21.71;46.73;99480.19;10366197;28;20129;-59
2021/07/26 20:53:26;;;;;;;4.28;2.20;;;;;;;21.62;47.32;99491.91;10365392;28;20326;-60
2021/07/26 20:58:28;;;;;;;3.30;2.10;;;;;;;21.56;47.57;99487.22;10365908;28;20565;-61
2021/07/26 21:03:31;;;;;;;4.18;2.30;;;;;;;21.53;47.19;99498.22;10365329;28;20137;-61
2021/07/26 21:08:34;;;;;;;3.97;2.25;;;;;;;21.50;47.42;99495.91;10365855;28;20372;-60
2021/07/26 21:13:37;;;;;;;5.05;2.35;;;;;;;21.50;48.82;99499.41;10365257;28;20056;-59
2021/07/26 21:18:39;;;;;;;7.35;2.42;;;;;;;21.43;48.86;99514.41;10363938;28;20112;-60
2021/07/26 21:23:41;;;;;;;3.47;2.20;;;;;;;21.32;49.54;99508.59;10364151;28;20073;-60
2021/07/26 21:28:43;;;;;;;6.18;2.50;;;;;;;21.16;50.37;99512.09;10364823;28;20136;-60
2021/07/26 21:33:44;;;;;;;6.55;3.70;;;;;;;20.98;51.17;99522.94;10364486;28;20074;-60
2021/07/26 21:38:46;;;;;;;8.88;4.68;;;;;;;20.79;51.87;99523.25;10363261;28;20146;-60
2021/07/26 21:43:48;;;;;;;5.20;3.30;;;;;;;20.70;52.33;99526.09;10363819;28;20132;-60
2021/07/26 21:48:50;;;;;;;4.65;2.70;;;;;;;20.59;52.61;99535.22;10377781;28;20485;-61
2021/07/26 21:53:52;;;;;;;8.38;2.90;;;;;;;20.47;53.89;99538.31;10359964;28;20433;-60
2021/07/26 21:58:53;;;;;;;6.50;2.40;;;;;;;20.34;53.94;99549.41;10355589;28;20560;-60
2021/07/26 22:03:56;;;;;;;4.55;2.10;;;;;;;20.42;53.10;99538.81;10360684;28;20583;-60
2021/07/26 22:08:58;;;;;;;5.65;2.22;;;;;;;20.53;51.94;99543.81;10358186;28;20052;-60
2021/07/26 22:13:59;;;;;;;5.32;2.72;;;;;;;20.51;52.83;99545.81;10377055;28;20050;-60
2021/07/26 22:19:01;;;;;;;4.40;2.20;;;;;;;20.42;53.48;99535.34;10362441;28;20144;-60
2021/07/26 22:24:03;;;;;;;5.18;2.38;;;;;;;20.37;52.54;99546.44;10361769;28;20060;-60
2021/07/26 22:29:05;;;;;;;4.78;2.63;;;;;;;20.19;53.18;99538.59;10361013;28;20502;-60
2021/07/26 22:34:07;;;;;;;4.47;2.50;;;;;;;20.12;53.21;99539.41;10360773;28;20099;-60
2021/07/26 22:39:09;;;;;;;4.63;2.80;;;;;;;20.00;53.35;99546.84;10361271;28;20132;-59
2021/07/26 22:44:10;;;;;;;3.55;2.53;;;;;;;19.88;53.54;99547.28;10360618;28;20134;-60
2021/07/26 22:49:13;;;;;;;3.80;2.50;;;;;;;19.76;54.07;99551.19;10361361;28;20052;-60
2021/07/26 22:54:14;;;;;;;4.53;2.40;;;;;;;19.70;54.00;99555.31;10359415;28;20045;-60
2021/07/26 22:59:16;;;;;;;4.07;2.55;;;;;;;19.77;53.71;99550.19;10361377;28;20429;-60
2021/07/26 23:04:18;;;;;;;4.53;2.60;;;;;;;19.81;53.96;99554.19;10361156;28;20405;-60
2021/07/26 23:09:19;;;;;;;3.75;2.70;;;;;;;19.75;54.00;99560.97;10360893;28;20128;-60
2021/07/26 23:14:24;;;;;;;4.18;2.80;;;;;;;19.69;54.14;99560.75;10360646;28;20084;-60
2021/07/26 23:19:26;;;;;;;5.07;2.72;;;;;;;19.61;54.83;99558.06;10366108;28;20065;-61